Time;durP1;ratioP1;P1;durP2;ratioP2;P2;SDS_P1;SDS_P2;PMS_P1;PMS_P2;Temp;Humidity;BMP_temperature;BMP_pressure;BME280_temperature;BME280_humidity;BME280_pressure;Samples;Min_cycle;Max_cycle;Signal;HPM_P1;HPM_P2
2021/08/22 00:00:40;;;;;;;11.30;10.27;;;;;23.50;100324.00;;;;2071909;28;20218;-69
2021/08/22 00:01:41;;;;;;;10.63;9.63;;;;;23.50;100319.00;;;;2072257;28;20272;-69
2021/08/22 00:02:41;;;;;;;10.87;9.90;;;;;23.40;100318.00;;;;2072920;28;20268;-69
2021/08/22 00:03:41;;;;;;;11.67;10.57;;;;;23.40;100314.00;;;;2072158;28;20222;-69
2021/08/22 00:04:42;;;;;;;11.17;10.23;;;;;23.40;100309.00;;;;2070901;28;20210;-69
2021/08/22 00:05:42;;;;;;;10.13;8.83;;;;;23.40;100312.00;;;;2072844;28;20214;-69
2021/08/22 00:06:43;;;;;;;11.03;10.03;;;;;23.40;100319.00;;;;2072978;28;20221;-70
2021/08/22 00:07:43;;;;;;;11.10;10.17;;;;;23.40;100318.00;;;;2072856;28;20293;-69
2021/08/22 00:08:43;;;;;;;11.10;10.00;;;;;23.40;100320.00;;;;2072835;28;20225;-69
2021/08/22 00:09:44;;;;;;;11.90;10.90;;;;;23.40;100319.00;;;;2072837;28;20218;-69
2021/08/22 00:10:44;;;;;;;11.00;9.87;;;;;23.40;100323.00;;;;2072228;28;20210;-69
2021/08/22 00:11:44;;;;;;;9.70;8.80;;;;;23.40;100332.00;;;;2072181;28;20210;-69
2021/08/22 00:12:45;;;;;;;10.30;9.40;;;;;23.40;100330.00;;;;2072640;28;20217;-69
2021/08/22 00:13:45;;;;;;;11.00;10.10;;;;;23.40;100333.00;;;;2072792;28;20214;-69
2021/08/22 00:14:45;;;;;;;10.60;9.70;;;;;23.40;100325.00;;;;2072259;28;20289;-70
2021/08/22 00:15:46;;;;;;;10.07;9.27;;;;;23.40;100317.00;;;;2072247;28;20202;-69
2021/08/22 00:16:47;;;;;;;10.80;9.80;;;;;23.40;100310.00;;;;2071699;28;20198;-70
2021/08/22 00:17:47;;;;;;;10.83;9.63;;;;;23.40;100312.00;;;;2072139;28;20337;-69
2021/08/22 00:18:47;;;;;;;10.17;9.27;;;;;23.40;100317.00;;;;2072312;28;20202;-69
2021/08/22 00:19:48;;;;;;;10.60;9.70;;;;;23.40;100309.00;;;;2072758;28;20209;-69
2021/08/22 00:20:48;;;;;;;10.40;8.80;;;;;23.50;100310.00;;;;2072071;28;20218;-69
2021/08/22 00:21:48;;;;;;;10.27;9.30;;;;;23.50;100309.00;;;;2072133;28;20248;-69
2021/08/22 00:22:49;;;;;;;10.10;9.20;;;;;23.50;100306.00;;;;2072766;28;20210;-70
2021/08/22 00:23:49;;;;;;;11.00;10.00;;;;;23.50;100306.00;;;;2072761;28;20206;-69
2021/08/22 00:24:49;;;;;;;10.37;9.53;;;;;23.50;100297.00;;;;2071992;28;20720;-69
2021/08/22 00:25:50;;;;;;;10.33;9.47;;;;;23.40;100296.00;;;;2071593;28;20743;-69
2021/08/22 00:26:51;;;;;;;10.40;9.53;;;;;23.50;100293.00;;;;2068822;28;20601;-70
2021/08/22 00:27:51;;;;;;;11.00;10.00;;;;;23.50;100299.00;;;;2067300;28;20242;-69
2021/08/22 00:28:51;;;;;;;9.90;9.10;;;;;23.40;100283.00;;;;2067892;28;20210;-69
2021/08/22 00:29:52;;;;;;;9.60;8.80;;;;;23.40;100283.00;;;;2072042;28;20586;-69
2021/08/22 00:30:52;;;;;;;9.93;9.10;;;;;23.50;100298.00;;;;2072078;28;20218;-69
2021/08/22 00:31:53;;;;;;;9.10;8.30;;;;;23.40;100286.00;;;;2072691;28;20210;-69
2021/08/22 00:32:53;;;;;;;9.70;8.90;;;;;23.50;100277.00;;;;2070429;28;20218;-68
2021/08/22 00:33:53;;;;;;;9.53;8.73;;;;;23.40;100274.00;;;;2072475;28;20206;-69
2021/08/22 00:34:54;;;;;;;8.90;8.20;;;;;23.50;100272.00;;;;2072705;28;20320;-68
2021/08/22 00:35:55;;;;;;;9.48;8.68;;;;;23.40;100273.00;;;;2072457;28;20203;-69
2021/08/22 00:36:55;;;;;;;9.67;8.80;;;;;23.40;100278.00;;;;2072701;28;20571;-69
2021/08/22 00:37:56;;;;;;;9.37;8.57;;;;;23.40;100269.00;;;;2071729;28;20218;-70
2021/08/22 00:38:57;;;;;;;9.50;8.70;;;;;23.40;100279.00;;;;2072356;28;20211;-69
2021/08/22 00:39:58;;;;;;;9.53;8.63;;;;;23.40;100288.00;;;;2072709;28;20206;-69
2021/08/22 00:40:58;;;;;;;9.13;8.33;;;;;23.40;100297.00;;;;2072598;28;20305;-69
2021/08/22 00:41:58;;;;;;;9.57;8.70;;;;;23.40;100300.00;;;;2072604;28;20506;-69
2021/08/22 00:43:02;;;;;;;8.90;8.10;;;;;23.40;100288.00;;;;2071914;28;20218;-69
2021/08/22 00:44:03;;;;;;;9.23;8.43;;;;;23.40;100300.00;;;;2071989;28;20214;-70
2021/08/22 00:45:07;;;;;;;9.80;9.00;;;;;23.40;100298.00;;;;2072013;28;20217;-69
2021/08/22 00:46:07;;;;;;;9.27;8.48;;;;;23.40;100299.00;;;;2069065;28;20579;-69
2021/08/22 00:47:07;;;;;;;8.83;8.10;;;;;23.40;100302.00;;;;2072459;28;20214;-69
2021/08/22 00:48:08;;;;;;;9.97;9.10;;;;;23.40;100300.00;;;;2072760;28;20222;-70
2021/08/22 00:49:08;;;;;;;9.30;8.50;;;;;23.40;100303.00;;;;2071632;28;20218;-69
2021/08/22 00:50:18;;;;;;;9.40;8.53;;;;;23.40;100299.00;;;;2071564;28;20588;-70
2021/08/22 00:51:18;;;;;;;9.45;8.55;;;;;23.40;100299.00;;;;2068011;28;20218;-70
2021/08/22 00:52:19;;;;;;;9.13;8.33;;;;;23.40;100305.00;;;;2072095;28;20304;-70
2021/08/22 00:53:19;;;;;;;8.40;7.67;;;;;23.40;100304.00;;;;2071894;28;20225;-68
2021/08/22 00:54:19;;;;;;;9.20;8.30;;;;;23.40;100301.00;;;;2071745;28;20225;-69
2021/08/22 00:55:21;;;;;;;8.87;8.07;;;;;23.40;100304.00;;;;2069877;28;20289;-69
2021/08/22 00:56:21;;;;;;;9.30;8.40;;;;;23.40;100298.00;;;;2071845;28;20230;-69
2021/08/22 00:57:21;;;;;;;9.20;8.40;;;;;23.40;100302.00;;;;2071718;28;20702;-69
2021/08/22 00:58:22;;;;;;;8.70;7.90;;;;;23.40;100299.00;;;;2072405;28;20210;-69
2021/08/22 00:59:22;;;;;;;9.10;8.23;;;;;23.40;100298.00;;;;2072313;28;20214;-69
2021/08/22 01:00:22;;;;;;;8.20;7.50;;;;;23.40;100311.00;;;;2072532;28;20218;-69
2021/08/22 01:01:24;;;;;;;7.70;7.10;;;;;23.40;100307.00;;;;2071649;28;21025;-69
2021/08/22 01:02:27;;;;;;;8.40;7.70;;;;;23.40;100303.00;;;;2071461;28;20217;-70
2021/08/22 01:03:53;;;;;;;9.23;8.43;;;;;23.40;100307.00;;;;2071568;28;20234;-69
2021/08/22 01:05:12;;;;;;;7.75;7.05;;;;;23.40;100310.00;;;;2071592;28;20260;-69
2021/08/22 01:06:32;;;;;;;7.80;7.20;;;;;23.40;100309.00;;;;2070074;28;20252;-69
2021/08/22 01:07:43;;;;;;;7.03;6.43;;;;;23.40;100310.00;;;;2054393;28;20992;-69
2021/08/22 01:08:46;;;;;;;8.20;7.50;;;;;23.40;100308.00;;;;2064709;28;20225;-69
2021/08/22 01:09:47;;;;;;;7.65;7.00;;;;;23.40;100309.00;;;;2062809;28;20245;-69
2021/08/22 01:10:48;;;;;;;8.10;7.35;;;;;23.40;100305.00;;;;2059989;28;20214;-69
2021/08/22 01:11:48;;;;;;;7.20;6.60;;;;;23.30;100305.00;;;;2063536;28;20284;-69
2021/08/22 01:12:55;;;;;;;7.77;7.13;;;;;23.40;100302.00;;;;2063597;28;20218;-69
2021/08/22 01:14:02;;;;;;;7.63;6.95;;;;;23.40;100294.00;;;;2056069;28;20227;-69
2021/08/22 01:15:07;;;;;;;7.00;6.40;;;;;23.40;100306.00;;;;2065485;28;20721;-69
2021/08/22 01:16:08;;;;;;;6.82;6.28;;;;;23.40;100301.00;;;;2065630;28;20236;-69
2021/08/22 01:17:08;;;;;;;7.17;6.57;;;;;23.40;100311.00;;;;2071418;28;20218;-69
2021/08/22 01:18:11;;;;;;;7.90;7.20;;;;;23.40;100316.00;;;;2063389;28;20309;-69
2021/08/22 01:19:50;;;;;;;7.35;6.75;;;;;23.40;100308.00;;;;2071388;28;20222;-69
2021/08/22 01:21:13;;;;;;;7.10;6.50;;;;;23.40;100314.00;;;;2066257;28;20264;-69
2021/08/22 01:22:14;;;;;;;7.25;6.65;;;;;23.40;100304.00;;;;2071515;28;20376;-68
2021/08/22 01:23:14;;;;;;;6.37;5.87;;;;;23.40;100313.00;;;;2071600;28;20229;-69
2021/08/22 01:24:18;;;;;;;7.33;6.73;;;;;23.40;100303.00;;;;2071525;28;20218;-69
2021/08/22 01:25:18;;;;;;;7.10;6.45;;;;;23.40;100299.00;;;;2060573;28;20226;-69
2021/08/22 01:26:19;;;;;;;6.10;5.60;;;;;23.40;100310.00;;;;2061449;28;20219;-69
2021/08/22 01:27:19;;;;;;;7.27;6.67;;;;;23.40;100303.00;;;;2063621;28;20717;-69
2021/08/22 01:28:19;;;;;;;6.10;5.60;;;;;23.40;100307.00;;;;2070205;28;20225;-69
2021/08/22 01:29:21;;;;;;;6.23;5.73;;;;;23.40;100320.00;;;;2071370;28;20417;-69
2021/08/22 01:30:21;;;;;;;6.75;6.15;;;;;23.40;100308.00;;;;2062868;28;20230;-69
2021/08/22 01:31:23;;;;;;;6.20;5.70;;;;;23.40;100318.00;;;;2071248;28;20301;-70
2021/08/22 01:32:23;;;;;;;6.65;6.13;;;;;23.40;100314.00;;;;2051634;28;20220;-69
2021/08/22 01:33:23;;;;;;;6.80;6.10;;;;;23.40;100313.00;;;;2059307;28;20219;-69
2021/08/22 01:34:24;;;;;;;6.23;5.73;;;;;23.40;100311.00;;;;2069571;28;20310;-69
2021/08/22 01:35:24;;;;;;;6.87;6.27;;;;;23.40;100312.00;;;;2055239;28;20223;-70
2021/08/22 01:36:24;;;;;;;6.60;6.10;;;;;23.40;100307.00;;;;2054694;28;20307;-69
2021/08/22 01:37:25;;;;;;;6.03;5.53;;;;;23.40;100315.00;;;;2070675;28;20218;-69
2021/08/22 01:38:25;;;;;;;6.57;5.97;;;;;23.40;100303.00;;;;2059113;28;20655;-69
2021/08/22 01:39:25;;;;;;;5.70;5.20;;;;;23.40;100320.00;;;;2055056;28;20655;-69
2021/08/22 01:40:26;;;;;;;6.00;5.50;;;;;23.40;100323.00;;;;2052221;28;20766;-69
2021/08/22 01:41:26;;;;;;;6.07;5.57;;;;;23.40;100323.00;;;;2063355;28;20607;-69
2021/08/22 01:42:27;;;;;;;5.87;5.37;;;;;23.40;100315.00;;;;2072424;28;20217;-69
2021/08/22 01:43:27;;;;;;;5.80;5.30;;;;;23.40;100335.00;;;;2071527;28;20210;-69
2021/08/22 01:44:27;;;;;;;6.10;5.60;;;;;23.40;100331.00;;;;2070032;28;20203;-69
2021/08/22 01:45:28;;;;;;;6.33;5.83;;;;;23.40;100324.00;;;;2063323;28;20214;-69
2021/08/22 01:46:30;;;;;;;5.80;5.30;;;;;23.40;100332.00;;;;2063201;28;20298;-69
2021/08/22 01:47:30;;;;;;;5.25;4.85;;;;;23.40;100335.00;;;;2063508;28;20222;-70
2021/08/22 01:48:31;;;;;;;5.57;5.17;;;;;23.40;100339.00;;;;2055299;28;20725;-69
2021/08/22 01:49:31;;;;;;;5.80;5.30;;;;;23.40;100326.00;;;;2063111;28;20218;-69
2021/08/22 01:50:32;;;;;;;5.20;4.80;;;;;23.40;100338.00;;;;2071065;28;20218;-69
2021/08/22 01:51:32;;;;;;;5.90;5.30;;;;;23.40;100336.00;;;;2063398;28;20608;-69
2021/08/22 01:52:32;;;;;;;5.77;5.27;;;;;23.40;100337.00;;;;2060422;28;20223;-70
2021/08/22 01:53:33;;;;;;;5.60;5.10;;;;;23.40;100334.00;;;;2067119;28;20294;-69
2021/08/22 01:54:36;;;;;;;5.77;5.27;;;;;23.40;100332.00;;;;2062662;28;20242;-69
2021/08/22 01:55:36;;;;;;;4.90;4.50;;;;;23.40;100332.00;;;;2055183;28;20251;-69
2021/08/22 01:56:38;;;;;;;4.97;4.57;;;;;23.40;100335.00;;;;2053575;28;20274;-69
2021/08/22 01:57:38;;;;;;;5.15;4.65;;;;;23.40;100330.00;;;;2071213;28;20218;-69
2021/08/22 01:58:39;;;;;;;4.80;4.40;;;;;23.40;100337.00;;;;2071955;28;20732;-69
2021/08/22 01:59:39;;;;;;;4.77;4.37;;;;;23.40;100332.00;;;;2071739;28;20970;-69
2021/08/22 02:00:40;;;;;;;4.93;4.53;;;;;23.40;100336.00;;;;2071745;28;20214;-69
2021/08/22 02:01:40;;;;;;;5.03;4.63;;;;;23.40;100335.00;;;;2063164;28;20222;-69
2021/08/22 02:03:03;;;;;;;5.50;5.00;;;;;23.40;100320.00;;;;2062919;28;20469;-69
2021/08/22 02:04:25;;;;;;;4.65;4.25;;;;;23.40;100333.00;;;;2065861;28;20210;-69
2021/08/22 02:05:25;;;;;;;4.82;4.43;;;;;23.40;100335.00;;;;2058651;28;20668;-68
2021/08/22 02:06:47;;;;;;;5.20;4.77;;;;;23.40;100333.00;;;;2054958;28;20224;-70
2021/08/22 02:07:48;;;;;;;5.00;4.63;;;;;23.40;100332.00;;;;2064823;28;20699;-69
2021/08/22 02:08:49;;;;;;;4.88;4.47;;;;;23.40;100334.00;;;;2071048;28;20305;-68
2021/08/22 02:09:58;;;;;;;4.72;4.32;;;;;23.40;100325.00;;;;2071778;28;20221;-69
2021/08/22 02:11:02;;;;;;;4.68;4.28;;;;;23.40;100318.00;;;;2070891;28;20679;-69
2021/08/22 02:12:06;;;;;;;4.38;4.05;;;;;23.40;100335.00;;;;2060603;28;20223;-69
2021/08/22 02:13:06;;;;;;;4.80;4.40;;;;;23.40;100333.00;;;;2059405;28;20936;-69
2021/08/22 02:14:07;;;;;;;4.40;4.00;;;;;23.40;100330.00;;;;2051404;28;20216;-67
2021/08/22 02:15:10;;;;;;;4.67;4.27;;;;;23.40;100335.00;;;;2043094;29;20216;-69
2021/08/22 02:16:12;;;;;;;4.82;4.38;;;;;23.40;100332.00;;;;2063382;28;20222;-69
2021/08/22 02:17:12;;;;;;;4.53;4.13;;;;;23.40;100322.00;;;;2054821;28;20211;-69
2021/08/22 02:18:15;;;;;;;4.70;4.30;;;;;23.40;100324.00;;;;2055148;28;20330;-68
2021/08/22 02:19:16;;;;;;;4.55;4.15;;;;;23.40;100320.00;;;;2071016;28;20869;-69
2021/08/22 02:20:16;;;;;;;4.30;4.00;;;;;23.40;100319.00;;;;2071026;28;20246;-69
2021/08/22 02:21:16;;;;;;;4.60;4.20;;;;;23.40;100313.00;;;;2070731;28;20222;-69
2021/08/22 02:22:17;;;;;;;4.60;4.20;;;;;23.40;100325.00;;;;2071097;28;20222;-70
2021/08/22 02:23:17;;;;;;;5.73;4.47;;;;;23.30;100312.00;;;;2063089;28;20310;-68
2021/08/22 02:24:17;;;;;;;4.07;3.67;;;;;23.40;100321.00;;;;2071042;28;20225;-69
2021/08/22 02:25:18;;;;;;;4.20;3.90;;;;;23.40;100320.00;;;;2071155;28;20869;-69
2021/08/22 02:26:19;;;;;;;3.60;3.30;;;;;23.40;100320.00;;;;2062987;28;20707;-69
2021/08/22 02:27:19;;;;;;;4.13;3.73;;;;;23.20;100319.00;;;;2070846;28;20313;-70
2021/08/22 02:28:19;;;;;;;3.90;3.60;;;;;23.30;100319.00;;;;2071699;28;20308;-69
2021/08/22 02:29:20;;;;;;;3.87;3.57;;;;;23.30;100317.00;;;;2062687;28;20714;-69
2021/08/22 02:30:20;;;;;;;4.67;4.27;;;;;23.30;100324.00;;;;2062983;28;20736;-69
2021/08/22 02:31:20;;;;;;;3.80;3.50;;;;;23.30;100318.00;;;;2071512;28;20672;-68
2021/08/22 02:32:21;;;;;;;4.27;3.97;;;;;23.30;100316.00;;;;2071712;28;20759;-69
2021/08/22 02:33:22;;;;;;;4.17;3.77;;;;;23.30;100315.00;;;;2071657;28;20210;-70
2021/08/22 02:34:23;;;;;;;3.97;3.67;;;;;23.30;100321.00;;;;2071696;28;20210;-70
2021/08/22 02:35:23;;;;;;;3.93;3.63;;;;;23.30;100315.00;;;;2071746;28;20214;-69
2021/08/22 02:36:23;;;;;;;3.73;3.43;;;;;23.30;100321.00;;;;2071485;28;20214;-70
2021/08/22 02:37:24;;;;;;;4.10;3.80;;;;;23.30;100330.00;;;;2070502;28;20221;-69
2021/08/22 02:38:24;;;;;;;4.10;3.80;;;;;23.30;100322.00;;;;2071074;28;20214;-68
2021/08/22 02:39:24;;;;;;;4.37;3.97;;;;;23.30;100318.00;;;;2071096;28;20206;-69
2021/08/22 02:40:25;;;;;;;3.83;3.53;;;;;23.30;100313.00;;;;2071690;28;20345;-68
2021/08/22 02:41:25;;;;;;;3.60;3.30;;;;;23.30;100319.00;;;;2071766;28;20591;-69
2021/08/22 02:42:26;;;;;;;3.70;3.40;;;;;23.30;100314.00;;;;2071775;28;20217;-69
2021/08/22 02:43:26;;;;;;;3.83;3.53;;;;;23.30;100318.00;;;;2071704;28;20222;-69
2021/08/22 02:44:27;;;;;;;3.73;3.43;;;;;23.30;100313.00;;;;2071673;28;20222;-69
2021/08/22 02:45:28;;;;;;;4.00;3.43;;;;;23.30;100315.00;;;;2070984;28;20249;-69
2021/08/22 02:46:28;;;;;;;3.50;3.20;;;;;23.30;100318.00;;;;2070916;28;20210;-69
2021/08/22 02:47:28;;;;;;;3.10;2.80;;;;;23.20;100316.00;;;;2070864;28;20460;-69
2021/08/22 02:48:29;;;;;;;3.77;3.47;;;;;23.30;100316.00;;;;2070954;28;20214;-70
2021/08/22 02:49:29;;;;;;;3.73;3.40;;;;;23.30;100318.00;;;;2070855;28;20242;-69
2021/08/22 02:50:29;;;;;;;3.43;3.10;;;;;23.30;100323.00;;;;2062822;28;20220;-70
2021/08/22 02:51:30;;;;;;;3.20;3.00;;;;;23.30;100313.00;;;;2066985;28;20215;-69
2021/08/22 02:52:30;;;;;;;3.63;3.33;;;;;23.30;100310.00;;;;2071186;28;20237;-69
2021/08/22 02:53:30;;;;;;;3.40;3.10;;;;;23.30;100315.00;;;;2070172;28;20326;-68
2021/08/22 02:54:31;;;;;;;4.00;3.60;;;;;23.30;100312.00;;;;2071035;28;20234;-69
2021/08/22 02:55:31;;;;;;;3.90;3.60;;;;;23.30;100318.00;;;;2071446;28;20206;-68
2021/08/22 02:56:31;;;;;;;3.60;3.30;;;;;23.30;100315.00;;;;2071152;28;20206;-69
2021/08/22 02:57:32;;;;;;;3.73;3.43;;;;;23.30;100313.00;;;;2070730;28;20217;-69
2021/08/22 02:58:32;;;;;;;3.50;3.20;;;;;23.30;100314.00;;;;2070488;28;20237;-69
2021/08/22 02:59:33;;;;;;;3.53;3.23;;;;;23.30;100325.00;;;;2066803;28;20219;-69
2021/08/22 03:00:33;;;;;;;3.73;3.43;;;;;23.30;100318.00;;;;2069519;28;20242;-69
2021/08/22 03:01:33;;;;;;;4.80;3.20;;;;;23.30;100320.00;;;;2071100;28;20218;-69
2021/08/22 03:02:34;;;;;;;4.00;3.50;;;;;23.30;100319.00;;;;2071559;28;20206;-70
2021/08/22 03:03:34;;;;;;;3.23;2.93;;;;;23.30;100312.00;;;;2071313;28;20210;-69
2021/08/22 03:04:34;;;;;;;2.87;2.60;;;;;23.30;100317.00;;;;2066993;28;20214;-69
2021/08/22 03:05:35;;;;;;;3.70;3.40;;;;;23.30;100321.00;;;;2071613;28;20684;-69
2021/08/22 03:06:35;;;;;;;3.53;3.23;;;;;23.30;100320.00;;;;2070985;28;20950;-68
2021/08/22 03:07:35;;;;;;;3.20;2.90;;;;;23.30;100317.00;;;;2071443;28;20210;-69
2021/08/22 03:08:36;;;;;;;3.40;3.10;;;;;23.30;100321.00;;;;2071516;28;20225;-69
2021/08/22 03:09:36;;;;;;;3.60;3.30;;;;;23.30;100325.00;;;;2071239;28;20280;-69
2021/08/22 03:10:36;;;;;;;3.33;3.03;;;;;23.30;100324.00;;;;2071539;28;20214;-69
2021/08/22 03:11:37;;;;;;;3.10;2.90;;;;;23.30;100334.00;;;;2071602;28;20225;-69
2021/08/22 03:12:37;;;;;;;3.70;3.40;;;;;23.30;100322.00;;;;2071376;28;20623;-68
2021/08/22 03:13:38;;;;;;;3.10;2.87;;;;;23.30;100318.00;;;;2071401;28;20198;-69
2021/08/22 03:14:38;;;;;;;3.00;2.80;;;;;23.30;100330.00;;;;2071507;28;20213;-69
2021/08/22 03:15:38;;;;;;;3.10;2.90;;;;;23.30;100326.00;;;;2071451;28;20679;-69
2021/08/22 03:16:39;;;;;;;2.83;2.63;;;;;23.30;100325.00;;;;2068849;28;20717;-69
2021/08/22 03:17:39;;;;;;;3.30;3.00;;;;;23.30;100318.00;;;;2070785;28;20792;-69
2021/08/22 03:18:39;;;;;;;2.90;2.70;;;;;23.30;100321.00;;;;2070754;28;20660;-69
2021/08/22 03:19:40;;;;;;;3.20;2.90;;;;;23.30;100316.00;;;;2066806;28;20214;-70
2021/08/22 03:20:40;;;;;;;3.20;3.00;;;;;23.30;100322.00;;;;2071573;28;20222;-69
2021/08/22 03:21:45;;;;;;;3.40;3.10;;;;;23.30;100322.00;;;;2070495;28;20206;-69
2021/08/22 03:22:45;;;;;;;3.10;2.90;;;;;23.30;100318.00;;;;2070887;28;20730;-69
2021/08/22 03:23:45;;;;;;;3.20;2.90;;;;;23.30;100323.00;;;;2071380;28;20218;-69
2021/08/22 03:24:46;;;;;;;3.10;2.80;;;;;23.30;100326.00;;;;2070887;28;20305;-69
2021/08/22 03:25:46;;;;;;;2.70;2.50;;;;;23.30;100322.00;;;;2070806;28;20256;-69
2021/08/22 03:26:46;;;;;;;3.07;2.77;;;;;23.30;100318.00;;;;2071351;28;20623;-69
2021/08/22 03:27:47;;;;;;;2.60;2.40;;;;;23.30;100313.00;;;;2071427;28;20306;-69
2021/08/22 03:28:47;;;;;;;4.00;3.43;;;;;23.30;100312.00;;;;2071170;28;20202;-69
2021/08/22 03:29:47;;;;;;;2.80;2.60;;;;;23.30;100319.00;;;;2071465;28;20259;-69
2021/08/22 03:30:52;;;;;;;3.20;2.90;;;;;23.30;100315.00;;;;2071390;28;20210;-69
2021/08/22 03:31:53;;;;;;;3.53;3.22;;;;;23.30;100312.00;;;;2071534;28;20681;-69
2021/08/22 03:32:53;;;;;;;2.90;2.70;;;;;23.30;100309.00;;;;2070957;28;20229;-69
2021/08/22 03:33:53;;;;;;;3.13;2.93;;;;;23.30;100315.00;;;;2071042;28;20210;-69
2021/08/22 03:34:55;;;;;;;2.73;2.53;;;;;23.30;100312.00;;;;2071067;28;20222;-69
2021/08/22 03:35:56;;;;;;;3.33;2.80;;;;;23.30;100310.00;;;;2070518;28;20758;-69
2021/08/22 03:36:56;;;;;;;2.70;2.50;;;;;23.30;100304.00;;;;2070366;28;20206;-69
2021/08/22 03:37:56;;;;;;;3.40;3.10;;;;;23.30;100315.00;;;;2068400;28;20215;-69
2021/08/22 03:38:57;;;;;;;3.50;3.03;;;;;23.30;100318.00;;;;2069860;28;20214;-69
2021/08/22 03:39:57;;;;;;;4.17;3.70;;;;;23.30;100312.00;;;;2071185;28;20230;-69
2021/08/22 03:40:57;;;;;;;3.20;2.90;;;;;23.30;100319.00;;;;2070791;28;20241;-69
2021/08/22 03:41:58;;;;;;;2.80;2.60;;;;;23.30;100310.00;;;;2070761;28;20222;-70
2021/08/22 03:42:58;;;;;;;3.37;3.10;;;;;23.30;100316.00;;;;2071021;28;20403;-69
2021/08/22 03:43:59;;;;;;;3.63;3.23;;;;;23.30;100309.00;;;;2070464;28;20218;-69
2021/08/22 03:44:59;;;;;;;3.50;3.20;;;;;23.30;100312.00;;;;2062333;28;20386;-69
2021/08/22 03:46:00;;;;;;;3.20;2.97;;;;;23.30;100314.00;;;;2070157;28;20472;-69
2021/08/22 03:47:00;;;;;;;3.10;2.70;;;;;23.30;100313.00;;;;2061406;28;20282;-69
2021/08/22 03:48:00;;;;;;;3.30;3.00;;;;;23.30;100318.00;;;;2070189;28;20206;-69
2021/08/22 03:49:01;;;;;;;3.50;3.20;;;;;23.30;100318.00;;;;2070276;28;20214;-69
2021/08/22 03:50:01;;;;;;;3.70;3.40;;;;;23.30;100317.00;;;;2070634;28;20221;-69
2021/08/22 03:51:01;;;;;;;3.57;3.27;;;;;23.30;100303.00;;;;2070849;28;20302;-69
2021/08/22 03:52:02;;;;;;;3.77;3.47;;;;;23.30;100307.00;;;;2071095;28;20694;-68
2021/08/22 03:53:02;;;;;;;3.90;3.60;;;;;23.30;100317.00;;;;2070842;28;20241;-70
2021/08/22 03:54:04;;;;;;;3.53;3.23;;;;;23.30;100312.00;;;;2071420;28;20218;-69
2021/08/22 03:55:05;;;;;;;3.80;3.40;;;;;23.30;100313.00;;;;2071463;28;20226;-70
2021/08/22 03:56:05;;;;;;;4.60;4.20;;;;;23.30;100309.00;;;;2071355;28;20238;-69
2021/08/22 03:57:05;;;;;;;3.50;3.20;;;;;23.30;100312.00;;;;2071472;28;20453;-69
2021/08/22 03:58:06;;;;;;;4.10;3.80;;;;;23.30;100316.00;;;;2069970;28;20305;-69
2021/08/22 03:59:07;;;;;;;3.80;3.50;;;;;23.30;100305.00;;;;2071346;28;20241;-70
2021/08/22 04:00:08;;;;;;;4.03;3.63;;;;;23.30;100310.00;;;;2071444;28;20221;-69
2021/08/22 04:01:08;;;;;;;3.90;3.60;;;;;23.30;100319.00;;;;2070848;28;20707;-69
2021/08/22 04:02:08;;;;;;;3.77;3.47;;;;;23.30;100319.00;;;;2071411;28;20245;-69
2021/08/22 04:03:09;;;;;;;4.10;3.70;;;;;23.30;100315.00;;;;2071559;28;20222;-69
2021/08/22 04:04:09;;;;;;;3.90;3.60;;;;;23.30;100310.00;;;;2070622;28;20309;-68
2021/08/22 04:05:11;;;;;;;4.13;3.80;;;;;23.30;100318.00;;;;2070338;28;20218;-69
2021/08/22 04:06:12;;;;;;;4.18;3.88;;;;;23.30;100311.00;;;;2070558;28;20242;-69
2021/08/22 04:07:13;;;;;;;4.43;4.07;;;;;23.30;100311.00;;;;2071523;28;20221;-69
2021/08/22 04:08:13;;;;;;;4.68;4.22;;;;;23.30;100306.00;;;;2072533;28;20802;-69
2021/08/22 04:09:16;;;;;;;4.43;4.00;;;;;23.30;100309.00;;;;2072169;28;20233;-70
2021/08/22 04:10:16;;;;;;;4.97;4.47;;;;;23.30;100314.00;;;;2068988;28;20689;-69
2021/08/22 04:11:17;;;;;;;4.27;3.87;;;;;23.30;100305.00;;;;2071091;28;20225;-69
2021/08/22 04:12:17;;;;;;;4.50;3.70;;;;;23.30;100311.00;;;;2072118;28;20297;-69
2021/08/22 04:13:19;;;;;;;4.03;3.73;;;;;23.30;100309.00;;;;2072144;28;20206;-70
2021/08/22 04:14:19;;;;;;;4.07;3.78;;;;;23.30;100310.00;;;;2072137;28;20225;-69
2021/08/22 04:15:20;;;;;;;4.50;4.10;;;;;23.30;100319.00;;;;2072109;28;20297;-69
2021/08/22 04:16:20;;;;;;;3.77;3.47;;;;;23.30;100319.00;;;;2072485;28;20222;-69
2021/08/22 04:17:21;;;;;;;3.83;3.53;;;;;23.30;100311.00;;;;2072405;28;20211;-69
2021/08/22 04:18:21;;;;;;;4.80;4.40;;;;;23.30;100311.00;;;;2068921;28;20276;-69
2021/08/22 04:19:21;;;;;;;4.60;4.20;;;;;23.30;100312.00;;;;2072646;28;20224;-69
2021/08/22 04:20:23;;;;;;;4.10;3.80;;;;;23.30;100314.00;;;;2070718;28;20223;-70
2021/08/22 04:21:23;;;;;;;4.10;3.78;;;;;23.30;100322.00;;;;2072769;28;20326;-69
2021/08/22 04:22:23;;;;;;;4.67;4.27;;;;;23.30;100323.00;;;;2072234;28;20276;-69
2021/08/22 04:23:24;;;;;;;4.57;4.20;;;;;23.30;100318.00;;;;2072002;28;20663;-69
2021/08/22 04:24:24;;;;;;;4.90;4.50;;;;;23.30;100316.00;;;;2071520;28;21004;-70
2021/08/22 04:25:24;;;;;;;4.60;4.20;;;;;23.30;100317.00;;;;2072583;28;20639;-69
2021/08/22 04:26:25;;;;;;;4.57;4.17;;;;;23.30;100321.00;;;;2072681;28;20903;-69
2021/08/22 04:27:25;;;;;;;4.63;4.23;;;;;23.30;100326.00;;;;2072679;28;20214;-69
2021/08/22 04:28:25;;;;;;;4.50;4.17;;;;;23.30;100320.00;;;;2072584;28;20296;-69
2021/08/22 04:29:26;;;;;;;5.13;4.70;;;;;23.30;100323.00;;;;2072301;28;20218;-69
2021/08/22 04:30:26;;;;;;;4.90;4.50;;;;;23.30;100322.00;;;;2072664;28;20226;-69
2021/08/22 04:31:27;;;;;;;4.93;4.53;;;;;23.30;100323.00;;;;2072407;28;20242;-69
2021/08/22 04:32:27;;;;;;;4.77;4.37;;;;;23.30;100323.00;;;;2072608;28;20213;-69
2021/08/22 04:33:28;;;;;;;4.37;3.97;;;;;23.30;100320.00;;;;2072136;28;20280;-69
2021/08/22 04:34:29;;;;;;;5.07;4.68;;;;;23.30;100321.00;;;;2072576;28;20210;-69
2021/08/22 04:35:29;;;;;;;4.90;4.50;;;;;23.30;100320.00;;;;2072727;28;20203;-69
2021/08/22 04:36:29;;;;;;;4.70;4.30;;;;;23.30;100324.00;;;;2071030;28;20218;-69
2021/08/22 04:37:30;;;;;;;5.00;4.60;;;;;23.30;100333.00;;;;2071965;28;20755;-69
2021/08/22 04:38:30;;;;;;;4.90;4.50;;;;;23.30;100325.00;;;;2071856;28;20720;-70
2021/08/22 04:39:30;;;;;;;4.40;4.10;;;;;23.30;100332.00;;;;2071984;28;20709;-69
2021/08/22 04:40:31;;;;;;;3.97;3.53;;;;;23.30;100324.00;;;;2072073;28;20702;-69
2021/08/22 04:41:31;;;;;;;6.20;3.80;;;;;23.30;100331.00;;;;2071821;28;20225;-69
2021/08/22 04:42:32;;;;;;;4.27;3.93;;;;;23.30;100330.00;;;;2067070;28;20218;-69
2021/08/22 04:43:32;;;;;;;4.80;4.40;;;;;23.30;100330.00;;;;2072104;28;20250;-68
2021/08/22 04:44:32;;;;;;;4.83;4.43;;;;;23.30;100326.00;;;;2072196;28;20297;-68
2021/08/22 04:45:33;;;;;;;4.90;4.50;;;;;23.30;100321.00;;;;2072212;28;20233;-69
2021/08/22 04:46:33;;;;;;;4.47;4.07;;;;;23.30;100337.00;;;;2072424;28;20799;-69
2021/08/22 04:47:33;;;;;;;4.50;4.10;;;;;23.30;100321.00;;;;2064732;28;20645;-69
2021/08/22 04:48:34;;;;;;;5.50;5.00;;;;;23.30;100330.00;;;;2079871;28;20684;-68
2021/08/22 04:49:34;;;;;;;6.07;5.53;;;;;23.30;100340.00;;;;2078253;28;20600;-69
2021/08/22 04:50:34;;;;;;;4.03;3.73;;;;;23.30;100342.00;;;;2072072;28;20543;-69
2021/08/22 04:51:35;;;;;;;4.10;3.80;;;;;23.30;100338.00;;;;2071871;28;20711;-69
2021/08/22 04:52:35;;;;;;;5.17;4.67;;;;;23.30;100340.00;;;;2071163;28;20684;-69
2021/08/22 04:53:36;;;;;;;6.00;5.50;;;;;23.30;100335.00;;;;2070621;28;21038;-68
2021/08/22 04:54:36;;;;;;;5.00;4.60;;;;;23.30;100334.00;;;;2071589;28;20683;-69
2021/08/22 04:55:36;;;;;;;4.80;4.30;;;;;23.30;100326.00;;;;2072643;28;20587;-69
2021/08/22 04:56:39;;;;;;;4.80;4.40;;;;;23.30;100335.00;;;;2072562;28;20568;-68
2021/08/22 04:57:40;;;;;;;4.80;4.40;;;;;23.30;100350.00;;;;2071857;28;20222;-69
2021/08/22 04:58:40;;;;;;;5.70;4.77;;;;;23.30;100350.00;;;;2063741;28;20215;-69
2021/08/22 04:59:40;;;;;;;5.10;4.60;;;;;23.30;100353.00;;;;2067762;28;25839;-69
2021/08/22 05:00:41;;;;;;;4.97;4.57;;;;;23.30;100352.00;;;;2072423;28;20762;-69
2021/08/22 05:01:41;;;;;;;4.23;3.93;;;;;23.30;100352.00;;;;2071846;28;20669;-69
2021/08/22 05:02:42;;;;;;;4.37;4.00;;;;;23.30;100348.00;;;;2072272;28;20244;-69